Strona główna
METAR-TAF:

METAR-TAF

Lotnisko :

Port lotniczy Aleksandria

Aleksandria-El Nouzha, Egipt

Szerokość geograficzna: 31-12N, Długość geograficzna: 029-57E, wysokość: -2 m

Aktualna obserwacja pogody

Raport powstał 1 godzina i 31 minut temu, godzina 05:00 UTC
Wiatr 13 kt od południowy zachód
Temperatura 14°C
Wilgotność 82%
Ciśnienie 1011 hPa
Widzialność 10 km lub więcej
Rozproszone chmury na wysokości 2000 ft
Rozproszone chmury na wysokości 2200 ft

METAR: HEAX 130500Z 22013KT 9999 SCT020 SCT022 14/11 Q1011 NOSIG

czas: 08:31 (06:31 UTC)

Prognoza

Raport powstał 1 godzina i 31 minut temu, godzina 05:00 UTC
Prognoza ważna od 13 godzina 06 UTC do 14 godzina 12 UTC
Wiatr 10 kt od zachodnio-południowy zachód w porywach dochodzący do 20 kt
Widzialność 10 km lub więcej
Rozproszone chmury na wysokości 2000 ft
Przejściowo
od 13 godzina 06 UTC do 13 godzina 15 UTC
Widzialność: 7000 m
Przerywane chmury na wysokości 2000 ft
przelotny opad deszczu

TAF: HEAX 130500Z 1306/1412 24010G20KT 9999 SCT020 TEMPO 1306/1315 7000 SHRA BKN020

Obserwacja i prognoza pogody dla ponad 4000 lotnisk (raport METAR i TAF).

Dostępne stacje oznaczono żółtymi i czerwonymi punktami na mapie.

Najedź kursorem aby zobaczyć nazwę stacji.

Kliknij aby zobaczyć obserwacje i prognozy pogody.

Aby zmienić mapę: kliknij na zielony przycisk z czarnym krzyżykiem, aby powiększyć; na zielony przycisk z myślnikiem, aby pomniejszyć; na zielone strzałki, aby przejść do map sąsiednich.


METAR-TAF: